createdAt,value
2018-07-24T00:00:54.636Z,13.90
2018-07-24T00:03:23.351Z,16.20
2018-07-24T00:05:52.129Z,17.07
2018-07-24T00:08:20.723Z,18.13
2018-07-24T00:10:49.377Z,18.90
2018-07-24T00:13:18.004Z,17.23
2018-07-24T00:15:46.653Z,16.47
2018-07-24T00:18:15.405Z,17.00
2018-07-24T00:20:44.022Z,17.30
2018-07-24T00:23:12.714Z,18.10
2018-07-24T00:25:41.431Z,17.43
2018-07-24T00:28:10.139Z,17.50
2018-07-24T00:30:38.944Z,17.83
2018-07-24T00:33:07.638Z,18.60
2018-07-24T00:35:36.454Z,17.67
2018-07-24T00:38:05.190Z,18.47
2018-07-24T00:40:34.147Z,18.50
2018-07-24T00:43:02.783Z,18.73
2018-07-24T00:45:31.497Z,19.93
2018-07-24T00:48:00.133Z,18.33
2018-07-24T00:50:28.768Z,18.13
2018-07-24T00:52:57.402Z,18.47
2018-07-24T00:55:26.119Z,18.97
2018-07-24T00:57:54.894Z,19.43
2018-07-24T01:00:23.610Z,20.63
2018-07-24T01:02:52.185Z,19.87
2018-07-24T01:05:20.863Z,17.10
2018-07-24T01:07:49.477Z,20.43
2018-07-24T01:10:18.172Z,19.70
2018-07-24T01:12:46.828Z,18.93
2018-07-24T01:15:15.470Z,18.93
2018-07-24T01:17:44.200Z,18.73
2018-07-24T01:20:12.906Z,18.40
2018-07-24T01:22:41.590Z,18.80
2018-07-24T01:25:10.287Z,19.13
2018-07-24T01:27:38.923Z,17.60
2018-07-24T01:30:07.579Z,19.40
2018-07-24T01:32:36.293Z,19.10
2018-07-24T01:35:05.009Z,19.70
2018-07-24T01:37:33.706Z,18.63
2018-07-24T01:40:02.480Z,19.93
2018-07-24T01:42:31.316Z,18.77
2018-07-24T01:44:59.690Z,19.80
2018-07-24T01:47:28.425Z,19.37
2018-07-24T01:49:57.044Z,18.97
2018-07-24T01:52:25.799Z,19.10
2018-07-24T01:54:54.433Z,20.30
2018-07-24T01:57:23.073Z,20.23
2018-07-24T01:59:51.764Z,20.70
2018-07-24T02:02:20.580Z,19.40
2018-07-24T02:04:49.256Z,18.40
2018-07-24T02:07:17.971Z,19.00
2018-07-24T02:09:46.818Z,20.47
2018-07-24T02:12:15.526Z,18.77
2018-07-24T02:14:44.259Z,19.40
2018-07-24T02:17:13.213Z,18.50
2018-07-24T02:19:41.990Z,17.50
2018-07-24T02:22:10.709Z,20.03
2018-07-24T02:24:39.400Z,18.93
2018-07-24T02:27:08.211Z,19.37
2018-07-24T02:29:36.851Z,20.00
2018-07-24T02:32:05.567Z,19.47
2018-07-24T02:34:34.222Z,19.50
2018-07-24T02:37:03.022Z,19.37
2018-07-24T02:39:31.613Z,19.20
2018-07-24T02:42:00.325Z,21.30
2018-07-24T02:44:29.125Z,20.10
2018-07-24T02:46:57.763Z,18.30
2018-07-24T02:49:26.417Z,20.80
2018-07-24T02:51:55.132Z,21.30
2018-07-24T02:54:23.787Z,20.07
2018-07-24T02:56:52.482Z,20.00
2018-07-24T02:59:20.799Z,20.40
2018-07-24T03:01:49.434Z,21.80
2018-07-24T03:04:18.067Z,19.63
2018-07-24T03:06:46.725Z,20.67
2018-07-24T03:09:15.459Z,21.80
2018-07-24T03:11:44.102Z,21.00
2018-07-24T03:14:12.711Z,21.90
2018-07-24T03:16:41.407Z,20.90
2018-07-24T03:19:10.065Z,22.47
2018-07-24T03:21:38.742Z,21.70
2018-07-24T03:24:07.785Z,21.83
2018-07-24T03:26:37.054Z,20.63
2018-07-24T03:29:05.985Z,20.47
2018-07-24T03:31:34.672Z,20.13
2018-07-24T03:34:03.370Z,18.33
2018-07-24T03:36:31.942Z,21.40
2018-07-24T03:39:00.507Z,21.03
2018-07-24T03:41:29.061Z,20.60
2018-07-24T03:43:57.519Z,20.50
2018-07-24T03:46:26.072Z,20.90
2018-07-24T03:48:54.628Z,22.07
2018-07-24T03:51:23.183Z,22.30
2018-07-24T03:53:51.680Z,20.10
2018-07-24T03:56:20.252Z,20.03
2018-07-24T03:58:48.924Z,19.67
2018-07-24T04:01:17.518Z,19.30
2018-07-24T04:03:46.197Z,22.17
2018-07-24T04:06:14.891Z,19.20
2018-07-24T04:08:43.534Z,21.40
2018-07-24T04:11:13.267Z,20.63
2018-07-24T04:13:41.843Z,19.00
2018-07-24T04:16:10.498Z,21.93
2018-07-24T04:18:44.474Z,21.10
2018-07-24T04:21:13.308Z,21.40
2018-07-24T04:23:42.126Z,22.20
2018-07-24T04:26:10.990Z,20.63
2018-07-24T04:28:40.648Z,22.20
2018-07-24T04:31:09.449Z,21.43
2018-07-24T04:33:38.092Z,20.40
2018-07-24T04:36:06.401Z,20.70
2018-07-24T04:38:35.304Z,21.40
2018-07-24T04:41:04.462Z,21.07
2018-07-24T04:43:33.087Z,20.73
2018-07-24T04:46:01.683Z,21.47
2018-07-24T04:48:30.592Z,19.27
2018-07-24T04:50:59.235Z,20.73
2018-07-24T04:53:27.869Z,20.03
2018-07-24T04:55:56.476Z,19.27
2018-07-24T04:58:25.139Z,21.13
2018-07-24T05:00:53.718Z,20.17
2018-07-24T05:03:22.486Z,19.47
2018-07-24T05:05:51.210Z,17.70
2018-07-24T05:08:20.080Z,20.47
2018-07-24T05:10:48.773Z,18.20
2018-07-24T05:13:17.434Z,18.60
2018-07-24T05:15:46.046Z,17.60
2018-07-24T05:18:14.747Z,17.67
2018-07-24T05:20:43.281Z,16.50
2018-07-24T05:23:12.012Z,16.27
2018-07-24T05:25:40.688Z,15.60
2018-07-24T05:28:09.505Z,13.57
2018-07-24T05:30:38.018Z,14.63
2018-07-24T05:33:06.753Z,14.10
2018-07-24T05:35:35.380Z,13.60
2018-07-24T05:38:04.030Z,11.67
2018-07-24T05:40:32.601Z,13.30
2018-07-24T05:43:01.158Z,12.97
2018-07-24T05:45:29.684Z,12.70
2018-07-24T05:47:58.264Z,11.00
2018-07-24T05:50:26.774Z,11.23
2018-07-24T05:52:55.260Z,12.00
2018-07-24T05:55:23.850Z,10.70
2018-07-24T05:57:52.385Z,10.53
2018-07-24T06:00:22.320Z,10.70
2018-07-24T06:02:50.820Z,10.90
2018-07-24T06:05:19.268Z,9.13
2018-07-24T06:07:47.812Z,9.03
2018-07-24T06:10:16.316Z,9.33
2018-07-24T06:12:44.833Z,8.60
2018-07-24T06:15:13.418Z,8.07
2018-07-24T06:17:41.987Z,8.43
2018-07-24T06:20:11.261Z,8.20
2018-07-24T06:22:39.757Z,8.10
2018-07-24T06:25:08.327Z,7.53
2018-07-24T06:27:36.883Z,6.77
2018-07-24T06:30:06.162Z,7.40
2018-07-24T06:32:34.687Z,6.80
2018-07-24T06:35:03.446Z,7.30
2018-07-24T06:37:32.028Z,6.90
2018-07-24T06:40:00.652Z,5.87
2018-07-24T06:42:29.302Z,5.42
2018-07-24T06:44:57.528Z,5.30
2018-07-24T06:47:26.128Z,5.42
2018-07-24T06:49:54.573Z,4.80
2018-07-24T06:52:23.150Z,5.40
2018-07-24T06:54:51.726Z,5.03
2018-07-24T06:57:20.360Z,4.65
2018-07-24T06:59:48.996Z,4.67
2018-07-24T07:02:17.597Z,4.65
2018-07-24T07:04:46.365Z,4.50
2018-07-24T07:07:14.993Z,4.55
2018-07-24T07:09:43.637Z,4.75
2018-07-24T07:12:12.314Z,3.98
2018-07-24T07:14:40.910Z,5.08
2018-07-24T07:17:09.404Z,4.70
2018-07-24T07:19:37.819Z,4.30
2018-07-24T07:22:06.383Z,4.47
2018-07-24T07:24:34.789Z,4.08
2018-07-24T07:27:03.274Z,3.90
2018-07-24T07:29:31.826Z,4.45
2018-07-24T07:32:00.316Z,3.58
2018-07-24T07:34:28.890Z,3.10
2018-07-24T07:36:57.333Z,3.12
2018-07-24T07:39:25.768Z,3.10
2018-07-24T07:41:54.180Z,2.98
2018-07-24T07:44:22.739Z,2.75
2018-07-24T07:46:51.252Z,3.10
2018-07-24T07:49:19.824Z,3.20
2018-07-24T07:51:48.356Z,2.80
2018-07-24T07:54:16.792Z,2.60
2018-07-24T07:56:45.393Z,2.92
2018-07-24T07:59:13.909Z,2.75
2018-07-24T08:01:42.361Z,2.42
2018-07-24T08:04:10.933Z,2.30
2018-07-24T08:06:39.573Z,2.05
2018-07-24T08:09:09.375Z,1.90
2018-07-24T08:11:38.185Z,1.57
2018-07-24T08:14:06.724Z,2.25
2018-07-24T08:16:35.503Z,1.55
2018-07-24T08:19:03.988Z,1.40
2018-07-24T08:21:32.585Z,1.98
2018-07-24T08:24:01.068Z,1.27
2018-07-24T08:26:29.489Z,1.35
2018-07-24T08:28:58.015Z,1.47
2018-07-24T08:31:26.548Z,1.32
2018-07-24T08:33:55.044Z,1.02
2018-07-24T08:36:23.619Z,1.10
2018-07-24T08:38:52.125Z,1.10
2018-07-24T08:41:20.733Z,1.07
2018-07-24T08:43:49.386Z,1.30
2018-07-24T08:46:18.404Z,1.20
2018-07-24T08:48:47.010Z,1.20
2018-07-24T08:51:15.500Z,1.10
2018-07-24T08:53:44.512Z,1.77
2018-07-24T08:56:12.815Z,1.10
2018-07-24T08:58:41.340Z,1.20
2018-07-24T09:01:10.065Z,1.30
2018-07-24T09:03:38.661Z,1.00
2018-07-24T09:06:07.248Z,1.17
2018-07-24T09:08:35.700Z,1.20
2018-07-24T09:11:04.257Z,1.00
2018-07-24T09:13:32.817Z,1.15
2018-07-24T09:16:01.428Z,1.10
2018-07-24T09:18:30.035Z,1.20
2018-07-24T09:20:58.789Z,1.10
2018-07-24T09:23:27.356Z,1.30
2018-07-24T09:25:55.511Z,1.20
2018-07-24T09:28:23.986Z,1.25
2018-07-24T09:30:52.606Z,1.10
2018-07-24T09:33:21.100Z,1.15
2018-07-24T09:35:49.714Z,1.07
2018-07-24T09:38:18.270Z,1.10
2018-07-24T09:40:46.741Z,1.07
2018-07-24T09:43:15.710Z,1.20
2018-07-24T09:45:44.234Z,1.27
2018-07-24T09:48:12.676Z,1.65
2018-07-24T09:50:41.397Z,1.90
2018-07-24T09:53:09.819Z,1.92
2018-07-24T09:55:38.358Z,2.30
2018-07-24T09:58:06.883Z,2.70
2018-07-24T10:00:40.748Z,3.40
2018-07-24T10:03:09.306Z,3.20
2018-07-24T10:05:37.841Z,4.10
2018-07-24T10:08:06.422Z,3.50
2018-07-24T10:10:34.872Z,3.73
2018-07-24T10:13:03.549Z,3.77
2018-07-24T10:15:31.943Z,4.20
2018-07-24T10:18:00.458Z,3.83
2018-07-24T10:20:28.978Z,4.00
2018-07-24T10:22:57.102Z,3.50
2018-07-24T10:25:25.612Z,3.60
2018-07-24T10:27:54.078Z,3.30
2018-07-24T10:30:22.588Z,3.50
2018-07-24T10:32:51.216Z,3.80
2018-07-24T10:35:19.664Z,4.33
2018-07-24T10:37:48.073Z,3.40
2018-07-24T10:40:16.526Z,4.30
2018-07-24T10:42:45.030Z,3.90
2018-07-24T10:45:13.630Z,4.00
2018-07-24T10:47:42.283Z,4.00
2018-07-24T10:50:10.983Z,4.00
2018-07-24T10:52:39.761Z,4.07
2018-07-24T10:55:08.294Z,4.20
2018-07-24T10:57:36.969Z,4.47
2018-07-24T11:00:05.951Z,3.97
2018-07-24T11:02:34.457Z,4.40
2018-07-24T11:05:03.010Z,4.13
2018-07-24T11:07:31.472Z,4.07
2018-07-24T11:09:59.912Z,4.10
2018-07-24T11:12:28.321Z,4.00
2018-07-24T11:14:56.758Z,4.07
2018-07-24T11:17:25.240Z,3.60
2018-07-24T11:19:53.776Z,4.20
2018-07-24T11:22:22.320Z,4.23
2018-07-24T11:24:50.717Z,3.97
2018-07-24T11:27:19.295Z,3.90
2018-07-24T11:29:47.732Z,3.63
2018-07-24T11:32:16.388Z,4.23
2018-07-24T11:34:45.854Z,3.50
2018-07-24T11:37:13.970Z,4.73
2018-07-24T11:39:43.048Z,4.30
2018-07-24T11:42:11.502Z,4.20
2018-07-24T11:44:39.991Z,4.27
2018-07-24T11:47:08.436Z,3.80
2018-07-24T11:49:37.272Z,4.20
2018-07-24T11:52:05.772Z,3.93
2018-07-24T11:54:34.388Z,4.07
2018-07-24T11:57:02.920Z,3.80
2018-07-24T11:59:31.357Z,3.80
2018-07-24T12:01:59.812Z,3.73
2018-07-24T12:04:28.368Z,4.07
2018-07-24T12:06:56.988Z,3.97
2018-07-24T12:09:25.147Z,3.70
2018-07-24T12:11:53.284Z,4.43
2018-07-24T12:14:21.359Z,4.17
2018-07-24T12:16:49.937Z,4.22
2018-07-24T12:19:18.342Z,3.80
2018-07-24T12:21:46.767Z,4.30
2018-07-24T12:24:15.201Z,4.10
2018-07-24T12:26:43.720Z,3.90
2018-07-24T12:29:12.720Z,3.80
2018-07-24T12:31:41.500Z,3.80
2018-07-24T12:34:10.202Z,4.10
2018-07-24T12:36:40.380Z,4.07
2018-07-24T12:39:10.443Z,4.10
2018-07-24T12:41:38.985Z,4.03
2018-07-24T12:44:07.657Z,4.43
2018-07-24T12:46:36.253Z,4.57
2018-07-24T12:49:04.674Z,4.30
2018-07-24T12:51:32.812Z,4.20
2018-07-24T12:54:01.268Z,4.00
2018-07-24T12:56:29.763Z,4.03
2018-07-24T12:58:58.269Z,4.60
2018-07-24T13:01:26.708Z,4.23
2018-07-24T13:03:55.115Z,4.13
2018-07-24T13:06:23.661Z,4.20
2018-07-24T13:08:52.089Z,4.10
2018-07-24T13:11:20.492Z,3.93
2018-07-24T13:13:48.603Z,4.17
2018-07-24T13:16:17.089Z,3.90
2018-07-24T13:18:45.526Z,3.90
2018-07-24T13:21:13.904Z,3.77
2018-07-24T13:23:42.396Z,3.97
2018-07-24T13:26:10.804Z,3.97
2018-07-24T13:28:39.232Z,4.47
2018-07-24T13:31:07.668Z,4.27
2018-07-24T13:33:36.080Z,4.17
2018-07-24T13:36:04.486Z,3.70
2018-07-24T13:38:32.932Z,4.40
2018-07-24T13:41:01.349Z,3.90
2018-07-24T13:43:29.790Z,4.40
2018-07-24T13:45:58.382Z,4.10
2018-07-24T13:48:26.832Z,4.13
2018-07-24T13:50:56.068Z,4.13
2018-07-24T13:53:24.481Z,4.40
2018-07-24T13:55:52.575Z,4.13
2018-07-24T13:58:20.703Z,4.40
2018-07-24T14:00:49.093Z,3.93
2018-07-24T14:03:17.496Z,4.53
2018-07-24T14:05:46.224Z,3.83
2018-07-24T14:08:14.635Z,3.97
2018-07-24T14:10:43.072Z,4.10
2018-07-24T14:13:11.505Z,4.70
2018-07-24T14:15:39.968Z,4.17
2018-07-24T14:18:08.389Z,4.00
2018-07-24T14:20:36.829Z,4.33
2018-07-24T14:23:05.240Z,4.37
2018-07-24T14:25:33.703Z,3.80
2018-07-24T14:28:02.143Z,4.20
2018-07-24T14:30:30.561Z,4.40
2018-07-24T14:32:58.959Z,4.60
2018-07-24T14:35:27.055Z,4.90
2018-07-24T14:37:55.431Z,4.30
2018-07-24T14:40:23.867Z,3.97
2018-07-24T14:42:52.260Z,4.40
2018-07-24T14:45:20.716Z,4.10
2018-07-24T14:47:49.103Z,4.40
2018-07-24T14:50:17.518Z,4.27
2018-07-24T14:52:46.024Z,3.93
2018-07-24T14:55:16.891Z,4.57
2018-07-24T14:57:45.291Z,4.50
2018-07-24T15:00:13.672Z,5.00
2018-07-24T15:02:42.066Z,4.47
2018-07-24T15:05:10.503Z,4.80
2018-07-24T15:07:38.897Z,4.93
2018-07-24T15:10:07.357Z,4.70
2018-07-24T15:12:35.790Z,4.43
2018-07-24T15:15:04.381Z,5.20
2018-07-24T15:17:32.769Z,4.93
2018-07-24T15:20:01.238Z,4.10
2018-07-24T15:22:29.632Z,4.70
2018-07-24T15:24:58.107Z,4.30
2018-07-24T15:27:26.575Z,4.23
2018-07-24T15:29:55.027Z,5.17
2018-07-24T15:32:23.443Z,4.50
2018-07-24T15:34:51.918Z,4.63
2018-07-24T15:37:20.328Z,4.67
2018-07-24T15:39:48.448Z,4.73
2018-07-24T15:42:16.905Z,5.00
2018-07-24T15:44:45.393Z,5.50
2018-07-24T15:47:13.500Z,4.90
2018-07-24T15:49:42.011Z,5.47
2018-07-24T15:52:10.508Z,5.40
2018-07-24T15:54:38.976Z,4.97
2018-07-24T15:57:07.492Z,5.13
2018-07-24T15:59:35.968Z,4.10
2018-07-24T16:02:05.026Z,5.50
2018-07-24T16:04:33.477Z,4.27
2018-07-24T16:07:01.917Z,5.47
2018-07-24T16:09:30.318Z,5.00
2018-07-24T16:11:58.766Z,4.80
2018-07-24T16:14:27.245Z,5.10
2018-07-24T16:16:55.652Z,5.27
2018-07-24T16:19:24.157Z,5.37
2018-07-24T16:21:52.580Z,5.00
2018-07-24T16:24:20.991Z,4.90
2018-07-24T16:26:49.400Z,5.63
2018-07-24T16:29:17.906Z,5.00
2018-07-24T16:31:46.288Z,5.20
2018-07-24T16:34:14.669Z,5.17
2018-07-24T16:36:43.036Z,5.20
2018-07-24T16:39:15.379Z,5.17
2018-07-24T16:41:43.738Z,4.90
2018-07-24T16:44:11.863Z,4.63
2018-07-24T16:46:40.305Z,4.83
2018-07-24T16:49:08.439Z,5.20
2018-07-24T16:51:36.859Z,4.63
2018-07-24T16:54:05.248Z,5.43
2018-07-24T16:56:33.607Z,5.30
2018-07-24T16:59:02.009Z,5.33
2018-07-24T17:01:30.468Z,4.73
2018-07-24T17:03:58.907Z,5.50
2018-07-24T17:06:27.271Z,4.50
2018-07-24T17:08:55.641Z,5.17
2018-07-24T17:11:24.067Z,4.77
2018-07-24T17:13:52.452Z,4.67
2018-07-24T17:16:20.867Z,5.10
2018-07-24T17:18:49.232Z,5.63
2018-07-24T17:21:17.697Z,4.67
2018-07-24T17:23:46.122Z,4.93
2018-07-24T17:26:14.560Z,5.10
2018-07-24T17:28:43.126Z,5.30
2018-07-24T17:31:14.512Z,5.00
2018-07-24T17:33:42.977Z,4.93
2018-07-24T17:36:11.440Z,5.77
2018-07-24T17:38:39.855Z,5.37
2018-07-24T17:41:08.326Z,5.60
2018-07-24T17:43:36.773Z,5.10
2018-07-24T17:46:04.872Z,5.13
2018-07-24T17:48:33.093Z,5.23
2018-07-24T17:51:01.151Z,5.00
2018-07-24T17:53:29.330Z,4.90
2018-07-24T17:55:57.468Z,4.73
2018-07-24T17:58:25.583Z,5.63
2018-07-24T18:00:53.819Z,5.37
2018-07-24T18:03:21.952Z,5.50
2018-07-24T18:05:50.148Z,4.57
2018-07-24T18:08:18.363Z,5.67
2018-07-24T18:10:46.566Z,5.70
2018-07-24T18:13:14.738Z,5.27
2018-07-24T18:15:42.981Z,6.57
2018-07-24T18:18:11.097Z,8.73
2018-07-24T18:20:39.256Z,5.60
2018-07-24T18:23:08.060Z,6.20
2018-07-24T18:25:36.195Z,5.30
2018-07-24T18:28:04.420Z,7.33
2018-07-24T18:30:32.632Z,5.77
2018-07-24T18:33:00.790Z,6.10
2018-07-24T18:35:28.957Z,5.97
2018-07-24T18:37:57.153Z,6.07
2018-07-24T18:40:25.328Z,5.93
2018-07-24T18:42:53.954Z,6.07
2018-07-24T18:45:22.917Z,6.70
2018-07-24T18:47:51.864Z,6.60
2018-07-24T18:50:20.553Z,5.47
2018-07-24T18:52:49.473Z,8.03
2018-07-24T18:55:17.845Z,6.70
2018-07-24T18:57:46.275Z,8.73
2018-07-24T19:00:14.795Z,6.20
2018-07-24T19:02:43.420Z,6.57
2018-07-24T19:05:12.037Z,7.03
2018-07-24T19:07:40.901Z,5.40
2018-07-24T19:10:09.760Z,6.33
2018-07-24T19:12:45.103Z,6.57
2018-07-24T19:15:13.724Z,5.50
2018-07-24T19:17:42.154Z,6.50
2018-07-24T19:20:10.520Z,7.10
2018-07-24T19:22:39.157Z,5.80
2018-07-24T19:25:07.540Z,6.43
2018-07-24T19:27:36.536Z,6.10
2018-07-24T19:30:04.873Z,6.47
2018-07-24T19:32:33.368Z,6.47
2018-07-24T19:35:01.936Z,6.47
2018-07-24T19:37:30.610Z,6.50
2018-07-24T19:39:59.038Z,5.93
2018-07-24T19:42:27.328Z,6.23
2018-07-24T19:44:55.711Z,6.27
2018-07-24T19:47:24.028Z,6.77
2018-07-24T19:49:52.425Z,6.80
2018-07-24T19:52:21.263Z,6.87
2018-07-24T19:54:50.056Z,6.57
2018-07-24T19:57:18.575Z,6.00
2018-07-24T19:59:46.678Z,5.80
2018-07-24T20:02:15.241Z,6.03
2018-07-24T20:04:43.524Z,6.40
2018-07-24T20:07:11.980Z,6.17
2018-07-24T20:09:40.537Z,6.77
2018-07-24T20:12:09.633Z,6.77
2018-07-24T20:14:37.868Z,6.13
2018-07-24T20:17:06.239Z,6.80
2018-07-24T20:19:34.565Z,7.00
2018-07-24T20:22:03.215Z,6.70
2018-07-24T20:24:31.483Z,7.20
2018-07-24T20:27:00.125Z,7.20
2018-07-24T20:29:28.701Z,6.63
2018-07-24T20:31:56.982Z,6.73
2018-07-24T20:34:25.891Z,7.23
2018-07-24T20:36:54.347Z,6.43
2018-07-24T20:39:22.863Z,7.10
2018-07-24T20:41:51.475Z,6.50
2018-07-24T20:44:19.867Z,7.17
2018-07-24T20:46:48.089Z,6.87
2018-07-24T20:49:16.469Z,6.40
2018-07-24T20:51:44.735Z,7.17
2018-07-24T20:54:13.143Z,7.77
2018-07-24T20:56:41.479Z,6.70
2018-07-24T20:59:10.012Z,6.67
2018-07-24T21:01:38.576Z,6.90
2018-07-24T21:04:06.938Z,8.10
2018-07-24T21:06:35.525Z,8.10
2018-07-24T21:09:06.054Z,7.13
2018-07-24T21:11:34.842Z,7.30
2018-07-24T21:14:03.554Z,6.80
2018-07-24T21:16:31.927Z,7.30
2018-07-24T21:19:00.304Z,7.70
2018-07-24T21:21:28.705Z,7.43
2018-07-24T21:23:57.306Z,8.40
2018-07-24T21:26:25.911Z,7.90
2018-07-24T21:28:54.458Z,7.53
2018-07-24T21:31:22.708Z,6.90
2018-07-24T21:33:51.270Z,7.17
2018-07-24T21:36:20.052Z,9.13
2018-07-24T21:38:48.341Z,7.27
2018-07-24T21:41:16.957Z,7.80
2018-07-24T21:43:45.683Z,7.00
2018-07-24T21:46:14.019Z,7.43
2018-07-24T21:48:42.296Z,6.93
2018-07-24T21:51:10.683Z,7.10
2018-07-24T21:53:40.700Z,6.70
2018-07-24T21:56:11.820Z,8.00
2018-07-24T21:58:44.040Z,8.20
2018-07-24T22:01:15.242Z,7.60
2018-07-24T22:03:43.532Z,8.07
2018-07-24T22:06:12.014Z,7.37
2018-07-24T22:08:41.046Z,8.20
2018-07-24T22:11:09.447Z,7.07
2018-07-24T22:13:37.742Z,7.67
2018-07-24T22:16:06.217Z,6.90
2018-07-24T22:18:34.505Z,7.20
2018-07-24T22:21:03.008Z,7.37
2018-07-24T22:23:31.103Z,7.77
2018-07-24T22:25:59.201Z,7.30
2018-07-24T22:28:27.298Z,7.27
2018-07-24T22:30:55.396Z,8.63
2018-07-24T22:33:23.481Z,8.07
2018-07-24T22:35:51.741Z,8.10
2018-07-24T22:38:19.886Z,7.47
2018-07-24T22:40:47.957Z,7.80
2018-07-24T22:43:16.063Z,7.87
2018-07-24T22:45:44.545Z,7.73
2018-07-24T22:48:12.683Z,7.97
2018-07-24T22:50:40.933Z,7.67
2018-07-24T22:53:09.056Z,7.23
2018-07-24T22:55:37.152Z,8.07
2018-07-24T22:58:05.280Z,8.03
2018-07-24T23:00:33.435Z,8.20
2018-07-24T23:03:01.635Z,8.20
2018-07-24T23:05:29.740Z,8.93
2018-07-24T23:07:57.915Z,8.00
2018-07-24T23:10:33.078Z,8.50
2018-07-24T23:13:02.920Z,7.00
2018-07-24T23:15:31.095Z,8.27
2018-07-24T23:17:59.216Z,8.07
2018-07-24T23:20:28.051Z,7.13
2018-07-24T23:22:56.217Z,8.00
2018-07-24T23:25:24.646Z,7.53
2018-07-24T23:27:52.972Z,7.57
2018-07-24T23:30:21.126Z,7.20
2018-07-24T23:32:49.321Z,8.07
2018-07-24T23:35:17.499Z,8.97
2018-07-24T23:37:45.680Z,8.27
2018-07-24T23:40:13.811Z,8.67
2018-07-24T23:42:41.966Z,7.87
2018-07-24T23:45:10.074Z,7.63
2018-07-24T23:47:38.204Z,8.00
2018-07-24T23:50:06.372Z,7.93
2018-07-24T23:52:34.467Z,9.10
2018-07-24T23:55:02.580Z,7.87
2018-07-24T23:57:30.677Z,7.80
2018-07-24T23:59:58.827Z,8.67
